createdAt,value
2022-09-20T00:01:22.558Z,10.60
2022-09-20T00:03:55.711Z,10.60
2022-09-20T00:06:26.316Z,10.60
2022-09-20T00:08:53.549Z,10.60
2022-09-20T00:11:23.573Z,10.60
2022-09-20T00:13:53.341Z,10.60
2022-09-20T00:16:26.240Z,10.50
2022-09-20T00:18:55.345Z,10.50
2022-09-20T00:21:24.876Z,10.40
2022-09-20T00:23:56.582Z,10.30
2022-09-20T00:26:23.836Z,10.30
2022-09-20T00:28:51.709Z,10.20
2022-09-20T00:31:19.193Z,10.10
2022-09-20T00:34:05.070Z,10.10
2022-09-20T00:36:31.916Z,10.00
2022-09-20T00:39:00.593Z,10.00
2022-09-20T00:41:28.044Z,9.90
2022-09-20T00:43:54.915Z,9.90
2022-09-20T00:46:27.530Z,9.90
2022-09-20T00:48:59.040Z,9.90
2022-09-20T00:51:29.728Z,9.90
2022-09-20T00:53:59.477Z,9.80
2022-09-20T00:56:31.159Z,9.80
2022-09-20T00:59:21.364Z,9.80
2022-09-20T01:01:53.783Z,9.80
2022-09-20T01:04:22.786Z,9.80
2022-09-20T01:06:53.670Z,9.80
2022-09-20T01:09:20.337Z,9.70
2022-09-20T01:11:47.839Z,9.70
2022-09-20T01:14:15.817Z,9.70
2022-09-20T01:16:42.635Z,9.60
2022-09-20T01:19:20.389Z,9.60
2022-09-20T01:21:48.472Z,9.60
2022-09-20T01:24:28.442Z,9.60
2022-09-20T01:27:04.670Z,9.60
2022-09-20T01:29:47.823Z,9.50
2022-09-20T01:32:20.487Z,9.50
2022-09-20T01:35:01.065Z,9.40
2022-09-20T01:37:45.365Z,9.30
2022-09-20T01:40:14.680Z,9.30
2022-09-20T01:42:50.977Z,9.30
2022-09-20T01:45:30.774Z,9.20
2022-09-20T01:48:04.580Z,9.10
2022-09-20T01:50:58.929Z,9.10
2022-09-20T01:54:03.121Z,9.10
2022-09-20T01:56:32.700Z,9.00
2022-09-20T01:59:25.578Z,9.00
2022-09-20T02:02:11.226Z,9.00
2022-09-20T02:04:58.945Z,8.90
2022-09-20T02:07:44.904Z,8.90
2022-09-20T02:10:14.525Z,8.90
2022-09-20T02:12:54.204Z,8.80
2022-09-20T02:15:41.129Z,8.80
2022-09-20T02:18:24.959Z,8.80
2022-09-20T02:21:20.289Z,8.80
2022-09-20T02:24:08.724Z,8.80
2022-09-20T02:26:46.072Z,8.90
2022-09-20T02:29:24.601Z,8.90
2022-09-20T02:32:26.939Z,8.90
2022-09-20T02:35:14.997Z,9.00
2022-09-20T02:37:50.365Z,9.00
2022-09-20T02:40:44.899Z,9.00
2022-09-20T02:43:37.838Z,9.00
2022-09-20T02:46:28.497Z,8.90
2022-09-20T02:49:11.118Z,8.90
2022-09-20T02:51:49.347Z,8.90
2022-09-20T02:54:30.651Z,8.90
2022-09-20T02:57:11.436Z,8.80
2022-09-20T02:59:52.729Z,8.80
2022-09-20T03:02:51.967Z,8.80
2022-09-20T03:05:31.813Z,8.90
2022-09-20T03:08:23.008Z,8.90
2022-09-20T03:11:28.231Z,8.90
2022-09-20T03:14:23.104Z,9.00
2022-09-20T03:17:10.888Z,9.10
2022-09-20T03:19:52.662Z,9.10
2022-09-20T03:22:53.425Z,9.20
2022-09-20T03:25:51.158Z,9.30
2022-09-20T03:28:53.352Z,9.30
2022-09-20T03:31:57.513Z,9.40
2022-09-20T03:34:33.048Z,9.50
2022-09-20T03:37:15.421Z,9.60
2022-09-20T03:39:55.361Z,9.60
2022-09-20T03:42:27.019Z,9.70
2022-09-20T03:45:05.656Z,9.70
2022-09-20T03:48:05.916Z,9.80
2022-09-20T03:50:52.533Z,9.80
2022-09-20T03:53:28.092Z,9.90
2022-09-20T03:56:13.344Z,9.90
2022-09-20T03:59:14.305Z,9.90
2022-09-20T04:02:00.779Z,10.00
2022-09-20T04:04:39.867Z,10.00
2022-09-20T04:07:21.487Z,10.00
2022-09-20T04:10:22.123Z,10.00
2022-09-20T04:13:15.456Z,9.90
2022-09-20T04:15:54.297Z,9.90
2022-09-20T04:18:38.439Z,9.90
2022-09-20T04:21:14.041Z,9.90
2022-09-20T04:23:49.685Z,9.90
2022-09-20T04:26:25.735Z,9.90
2022-09-20T04:29:16.642Z,9.90
2022-09-20T04:31:57.581Z,9.90
2022-09-20T04:34:53.933Z,9.80
2022-09-20T04:37:32.951Z,9.80
2022-09-20T04:40:34.211Z,9.80
2022-09-20T04:43:35.253Z,9.70
2022-09-20T04:46:45.672Z,9.60
2022-09-20T04:49:37.898Z,9.60
2022-09-20T04:52:26.469Z,9.50
2022-09-20T04:55:05.035Z,9.40
2022-09-20T04:57:53.816Z,9.40
2022-09-20T05:00:24.977Z,9.40
2022-09-20T05:03:11.020Z,9.30
2022-09-20T05:05:56.216Z,9.30
2022-09-20T05:08:59.063Z,9.20
2022-09-20T05:12:02.865Z,9.20
2022-09-20T05:15:00.250Z,9.10
2022-09-20T05:17:30.876Z,9.10
2022-09-20T05:20:25.144Z,9.10
2022-09-20T05:23:22.693Z,9.00
2022-09-20T05:26:13.837Z,9.00
2022-09-20T05:28:53.740Z,9.00
2022-09-20T05:31:47.023Z,9.00
2022-09-20T05:34:46.387Z,9.00
2022-09-20T05:37:39.848Z,9.00
2022-09-20T05:40:26.563Z,9.00
2022-09-20T05:43:01.963Z,9.00
2022-09-20T05:45:49.766Z,9.10
2022-09-20T05:48:32.304Z,9.20
2022-09-20T05:51:04.101Z,9.30
2022-09-20T05:53:48.884Z,9.50
2022-09-20T05:56:37.249Z,9.70
2022-09-20T05:59:30.505Z,10.00
2022-09-20T06:02:37.573Z,10.20
2022-09-20T06:05:04.184Z,10.60
2022-09-20T06:07:48.810Z,11.50
2022-09-20T06:10:39.707Z,12.80
2022-09-20T06:13:09.226Z,14.10
2022-09-20T06:15:52.497Z,15.60
2022-09-20T06:18:37.628Z,17.80
2022-09-20T06:21:22.850Z,19.70
2022-09-20T06:23:49.714Z,20.30
2022-09-20T06:26:17.323Z,19.80
2022-09-20T06:28:54.197Z,19.60
2022-09-20T06:31:24.365Z,19.10
2022-09-20T06:34:02.031Z,18.80
2022-09-20T06:36:51.794Z,18.50
2022-09-20T06:39:50.496Z,18.60
2022-09-20T06:42:17.293Z,19.10
2022-09-20T06:44:43.873Z,18.60
2022-09-20T06:47:11.821Z,18.00
2022-09-20T06:49:41.070Z,17.40
2022-09-20T06:52:12.313Z,16.60
2022-09-20T06:54:38.889Z,15.90
2022-09-20T06:57:06.428Z,15.30
2022-09-20T06:59:33.005Z,14.90
2022-09-20T07:01:59.592Z,14.50
2022-09-20T07:04:26.837Z,14.20
2022-09-20T07:07:01.102Z,13.90
2022-09-20T07:09:28.082Z,13.60
2022-09-20T07:11:56.231Z,13.40
2022-09-20T07:14:23.378Z,13.20
2022-09-20T07:16:49.994Z,13.00
2022-09-20T07:19:16.565Z,12.80
2022-09-20T07:21:43.137Z,12.80
2022-09-20T07:24:09.801Z,12.70
2022-09-20T07:26:38.761Z,12.70
2022-09-20T07:29:07.787Z,12.70
2022-09-20T07:31:34.419Z,12.80
2022-09-20T07:34:00.980Z,12.80
2022-09-20T07:36:27.516Z,12.90
2022-09-20T07:38:54.130Z,13.10
2022-09-20T07:41:22.796Z,13.30
2022-09-20T07:43:50.685Z,13.50
2022-09-20T07:46:17.302Z,13.70
2022-09-20T07:48:44.151Z,14.00
2022-09-20T07:51:13.410Z,14.20
2022-09-20T07:53:40.641Z,14.30
2022-09-20T07:56:11.390Z,14.40
2022-09-20T07:58:38.423Z,14.50
2022-09-20T08:01:10.643Z,14.40
2022-09-20T08:03:37.736Z,14.50
2022-09-20T08:06:10.382Z,14.60
2022-09-20T08:08:38.869Z,14.50
2022-09-20T08:11:08.151Z,14.60
2022-09-20T08:16:32.880Z,15.60
2022-09-20T08:19:02.644Z,16.50
2022-09-20T08:21:32.511Z,17.20
2022-09-20T08:24:00.156Z,18.30
2022-09-20T08:26:28.414Z,19.90
2022-09-20T08:28:56.977Z,21.50
2022-09-20T08:31:26.567Z,24.10
2022-09-20T08:33:54.508Z,26.70
2022-09-20T08:36:24.462Z,29.00
2022-09-20T08:42:00.990Z,32.10
2022-09-20T08:44:35.900Z,33.30
2022-09-20T08:47:12.348Z,33.80
2022-09-20T08:49:45.784Z,33.50
2022-09-20T08:52:19.368Z,33.50
2022-09-20T08:54:46.661Z,33.30
2022-09-20T08:57:16.954Z,32.30
2022-09-20T08:59:44.151Z,31.20
2022-09-20T09:02:19.491Z,29.80
2022-09-20T09:04:47.397Z,28.40
2022-09-20T09:07:16.788Z,27.30
2022-09-20T09:09:46.488Z,26.20
2022-09-20T09:12:24.248Z,25.30
2022-09-20T09:14:55.120Z,24.30
2022-09-20T09:17:28.219Z,23.40
2022-09-20T09:19:57.588Z,22.60
2022-09-20T09:22:35.084Z,21.90
2022-09-20T09:25:10.596Z,21.20
2022-09-20T09:28:18.506Z,20.50
2022-09-20T09:30:47.513Z,19.90
2022-09-20T09:33:19.928Z,19.90
2022-09-20T09:35:58.952Z,20.50
2022-09-20T09:38:29.623Z,21.10
2022-09-20T09:41:01.757Z,21.30
2022-09-20T09:43:32.290Z,21.40
2022-09-20T09:46:22.004Z,22.00
2022-09-20T09:49:15.403Z,23.20
2022-09-20T09:52:01.490Z,24.30
2022-09-20T09:54:50.487Z,25.10
2022-09-20T09:57:40.821Z,25.10
2022-09-20T10:00:22.277Z,24.50
2022-09-20T10:03:10.248Z,23.60
2022-09-20T10:06:04.725Z,22.80
2022-09-20T10:08:35.242Z,22.10
2022-09-20T10:11:37.404Z,21.80
2022-09-20T10:14:19.590Z,22.30
2022-09-20T10:17:10.424Z,22.90
2022-09-20T10:20:06.220Z,23.50
2022-09-20T10:23:21.720Z,23.70
2022-09-20T10:25:56.132Z,23.40
2022-09-20T10:28:50.300Z,22.80
2022-09-20T10:31:45.574Z,22.20
2022-09-20T10:34:50.641Z,21.60
2022-09-20T10:38:08.096Z,21.40
2022-09-20T10:41:07.504Z,21.80
2022-09-20T10:44:05.412Z,22.50
2022-09-20T10:46:53.506Z,23.10
2022-09-20T10:49:50.878Z,23.90
2022-09-20T10:52:37.207Z,24.50
2022-09-20T10:55:40.569Z,25.10
2022-09-20T10:58:30.477Z,25.30
2022-09-20T11:01:23.297Z,25.40
2022-09-20T11:04:02.056Z,25.30
2022-09-20T11:06:49.936Z,25.00
2022-09-20T11:09:22.052Z,24.30
2022-09-20T11:12:22.408Z,23.70
2022-09-20T11:14:55.239Z,23.60
2022-09-20T11:17:31.723Z,23.00
2022-09-20T11:20:07.212Z,22.00
2022-09-20T11:22:39.596Z,20.90
2022-09-20T11:25:29.508Z,19.80
2022-09-20T11:28:09.752Z,18.80
2022-09-20T11:30:54.862Z,18.00
2022-09-20T11:33:29.877Z,17.30
2022-09-20T11:36:02.087Z,16.80
2022-09-20T11:38:37.476Z,16.40
2022-09-20T11:41:19.776Z,16.10
2022-09-20T11:43:47.810Z,16.00
2022-09-20T11:46:23.767Z,15.90
2022-09-20T11:49:04.581Z,15.80
2022-09-20T11:51:39.953Z,15.80
2022-09-20T11:54:45.745Z,15.70
2022-09-20T11:57:16.572Z,15.70
2022-09-20T11:59:54.358Z,15.60
2022-09-20T12:02:37.367Z,15.60
2022-09-20T12:05:06.327Z,15.60
2022-09-20T12:07:39.996Z,15.60
2022-09-20T12:10:24.488Z,15.60
2022-09-20T12:12:59.331Z,15.70
2022-09-20T12:15:39.987Z,15.80
2022-09-20T12:18:12.349Z,16.00
2022-09-20T12:20:38.913Z,16.20
2022-09-20T12:23:42.774Z,16.40
2022-09-20T12:26:21.568Z,16.70
2022-09-20T12:28:53.447Z,16.90
2022-09-20T12:31:37.814Z,17.10
2022-09-20T12:34:24.375Z,17.50
2022-09-20T12:36:52.078Z,17.80
2022-09-20T12:39:24.185Z,18.00
2022-09-20T12:42:03.301Z,18.30
2022-09-20T12:44:41.810Z,18.70
2022-09-20T12:47:11.324Z,19.00
2022-09-20T12:50:05.328Z,19.20
2022-09-20T12:52:53.390Z,19.10
2022-09-20T12:55:49.442Z,19.20
2022-09-20T12:58:16.029Z,19.40
2022-09-20T13:00:48.740Z,19.70
2022-09-20T13:03:15.331Z,20.10
2022-09-20T13:05:47.012Z,20.40
2022-09-20T13:08:16.593Z,20.70
2022-09-20T13:11:13.151Z,20.90
2022-09-20T13:13:43.697Z,21.00
2022-09-20T13:16:40.162Z,20.90
2022-09-20T13:19:12.085Z,21.00
2022-09-20T13:21:42.188Z,21.00
2022-09-20T13:24:15.850Z,21.00
2022-09-20T13:26:46.685Z,21.00
2022-09-20T13:29:27.285Z,21.00
2022-09-20T13:31:56.329Z,20.70
2022-09-20T13:34:25.677Z,20.20
2022-09-20T13:36:58.126Z,19.70
2022-09-20T13:39:36.108Z,19.00
2022-09-20T13:42:09.041Z,18.40
2022-09-20T13:44:37.148Z,17.80
2022-09-20T13:47:23.916Z,17.30
2022-09-20T13:49:50.660Z,16.80
2022-09-20T13:52:29.137Z,16.40
2022-09-20T13:54:55.931Z,16.20
2022-09-20T13:57:27.476Z,16.00
2022-09-20T13:59:54.940Z,15.80
2022-09-20T14:02:26.229Z,15.90
2022-09-20T14:04:56.005Z,15.90
2022-09-20T14:07:26.013Z,16.20
2022-09-20T14:09:54.005Z,16.50
2022-09-20T14:12:22.711Z,16.60
2022-09-20T14:14:50.884Z,16.70
2022-09-20T14:17:20.440Z,16.70
2022-09-20T14:19:50.023Z,16.50
2022-09-20T14:22:22.868Z,16.50
2022-09-20T14:25:25.837Z,16.40
2022-09-20T14:28:06.441Z,16.40
2022-09-20T14:30:36.837Z,16.40
2022-09-20T14:33:06.238Z,16.30
2022-09-20T14:35:33.003Z,16.30
2022-09-20T14:38:08.378Z,16.20
2022-09-20T14:40:47.209Z,16.20
2022-09-20T14:43:32.837Z,16.00
2022-09-20T14:46:04.698Z,15.90
2022-09-20T14:48:42.767Z,15.70
2022-09-20T14:51:22.264Z,15.50
2022-09-20T14:53:52.382Z,15.20
2022-09-20T14:56:37.708Z,15.00
2022-09-20T14:59:19.113Z,14.80
2022-09-20T15:02:13.515Z,14.70
2022-09-20T15:04:42.157Z,14.60
2022-09-20T15:07:11.449Z,14.50
2022-09-20T15:09:38.225Z,14.40
2022-09-20T15:12:18.523Z,14.40
2022-09-20T15:14:46.126Z,14.30
2022-09-20T15:17:21.366Z,14.20
2022-09-20T15:19:49.157Z,14.20
2022-09-20T15:22:15.912Z,14.10
2022-09-20T15:24:43.406Z,14.10
2022-09-20T15:27:12.183Z,14.00
2022-09-20T15:29:39.022Z,13.90
2022-09-20T15:32:06.279Z,13.80
2022-09-20T15:34:32.896Z,13.70
2022-09-20T15:36:59.468Z,13.70
2022-09-20T15:39:26.054Z,13.60
2022-09-20T15:41:52.880Z,13.50
2022-09-20T15:44:20.195Z,13.50
2022-09-20T15:46:48.128Z,13.50
2022-09-20T15:49:14.768Z,13.50
2022-09-20T15:51:41.492Z,13.60
2022-09-20T15:54:12.600Z,13.60
2022-09-20T15:56:41.892Z,13.50
2022-09-20T15:59:11.128Z,13.50
2022-09-20T16:01:40.179Z,13.50
2022-09-20T16:04:09.948Z,13.40
2022-09-20T16:06:37.964Z,13.30
2022-09-20T16:09:04.908Z,13.30
2022-09-20T16:11:32.226Z,13.30
2022-09-20T16:14:00.397Z,13.30
2022-09-20T16:16:29.820Z,13.20
2022-09-20T16:19:15.456Z,13.20
2022-09-20T16:21:44.089Z,13.20
2022-09-20T16:24:12.428Z,13.20
2022-09-20T16:26:39.770Z,13.10
2022-09-20T16:29:11.741Z,13.10
2022-09-20T16:31:49.266Z,13.10
2022-09-20T16:34:22.983Z,13.10
2022-09-20T16:36:51.337Z,13.10
2022-09-20T16:39:19.635Z,13.00
2022-09-20T16:41:48.120Z,13.00
2022-09-20T16:44:15.638Z,13.00
2022-09-20T16:46:42.432Z,13.00
2022-09-20T16:49:11.434Z,12.90
2022-09-20T16:51:40.399Z,12.90
2022-09-20T16:54:11.538Z,12.80
2022-09-20T16:56:48.799Z,12.80
2022-09-20T16:59:17.818Z,12.70
2022-09-20T17:01:45.444Z,12.70
2022-09-20T17:04:14.113Z,12.60
2022-09-20T17:06:43.290Z,12.50
2022-09-20T17:09:10.957Z,12.50
2022-09-20T17:11:40.247Z,12.40
2022-09-20T17:14:07.338Z,12.30
2022-09-20T17:16:36.826Z,12.30
2022-09-20T17:19:09.320Z,12.20
2022-09-20T17:21:46.027Z,12.10
2022-09-20T17:24:14.032Z,12.00
2022-09-20T17:26:44.561Z,11.90
2022-09-20T17:29:17.355Z,11.80
2022-09-20T17:31:50.070Z,11.80
2022-09-20T17:34:21.285Z,11.70
2022-09-20T17:36:48.638Z,11.60
2022-09-20T17:39:16.414Z,11.50
2022-09-20T17:41:45.669Z,11.40
2022-09-20T17:44:12.659Z,11.40
2022-09-20T17:46:41.345Z,11.30
2022-09-20T17:49:10.232Z,11.20
2022-09-20T17:51:36.793Z,11.10
2022-09-20T17:54:03.763Z,11.10
2022-09-20T17:56:31.309Z,11.00
2022-09-20T17:59:00.083Z,10.90
2022-09-20T18:01:28.429Z,10.90
2022-09-20T18:03:57.037Z,10.80
2022-09-20T18:06:27.039Z,10.70
2022-09-20T18:08:59.051Z,10.70
2022-09-20T18:11:32.112Z,10.60
2022-09-20T18:14:00.133Z,10.60
2022-09-20T18:16:26.933Z,10.50
2022-09-20T18:18:53.877Z,10.50
2022-09-20T18:21:23.597Z,10.40
2022-09-20T18:23:51.759Z,10.40
2022-09-20T18:26:24.144Z,10.30
2022-09-20T18:29:05.553Z,10.20
2022-09-20T18:31:48.614Z,10.10
2022-09-20T18:34:21.085Z,10.10
2022-09-20T18:36:54.045Z,10.10
2022-09-20T18:39:25.196Z,10.10
2022-09-20T18:41:53.358Z,10.00
2022-09-20T18:44:21.031Z,10.00
2022-09-20T18:46:48.212Z,10.00
2022-09-20T18:49:16.661Z,9.90
2022-09-20T18:51:44.261Z,9.80
2022-09-20T18:54:11.685Z,9.80
2022-09-20T18:56:40.281Z,9.80
2022-09-20T18:59:25.148Z,9.80
2022-09-20T19:02:23.922Z,9.70
2022-09-20T19:04:57.657Z,9.70
2022-09-20T19:07:27.254Z,9.70
2022-09-20T19:10:06.131Z,9.60
2022-09-20T19:12:44.453Z,9.60
2022-09-20T19:15:17.089Z,9.60
2022-09-20T19:18:04.704Z,9.50
2022-09-20T19:21:00.391Z,9.40
2022-09-20T19:23:52.820Z,9.40
2022-09-20T19:26:22.282Z,9.30
2022-09-20T19:28:54.947Z,9.30
2022-09-20T19:31:33.319Z,9.20
2022-09-20T19:34:04.324Z,9.20
2022-09-20T19:36:55.767Z,9.20
2022-09-20T19:39:40.321Z,9.10
2022-09-20T19:42:31.544Z,9.10
2022-09-20T19:45:31.608Z,9.00
2022-09-20T19:48:28.149Z,9.00
2022-09-20T19:50:55.032Z,8.90
2022-09-20T19:53:24.480Z,8.90
2022-09-20T19:55:58.227Z,8.90
2022-09-20T19:58:25.576Z,8.80
2022-09-20T20:00:52.898Z,8.80
2022-09-20T20:03:20.083Z,8.80
2022-09-20T20:06:02.333Z,8.80
2022-09-20T20:08:54.833Z,8.80
2022-09-20T20:11:42.309Z,8.70
2022-09-20T20:14:24.018Z,8.70
2022-09-20T20:17:09.164Z,8.70
2022-09-20T20:20:01.539Z,8.60
2022-09-20T20:22:31.132Z,8.60
2022-09-20T20:24:58.061Z,8.50
2022-09-20T20:27:29.019Z,8.50
2022-09-20T20:29:55.813Z,8.40
2022-09-20T20:32:22.766Z,8.40
2022-09-20T20:34:49.987Z,8.40
2022-09-20T20:37:18.109Z,8.40
2022-09-20T20:39:44.730Z,8.30
2022-09-20T20:42:12.768Z,8.30
2022-09-20T20:44:39.916Z,8.30
2022-09-20T20:47:06.829Z,8.30
2022-09-20T20:49:33.689Z,8.30
2022-09-20T20:52:04.456Z,8.30
2022-09-20T20:54:32.064Z,8.30
2022-09-20T20:56:59.144Z,8.20
2022-09-20T20:59:25.732Z,8.20
2022-09-20T21:01:52.382Z,8.20
2022-09-20T21:04:19.047Z,8.10
2022-09-20T21:06:45.618Z,8.10
2022-09-20T21:09:13.332Z,8.00
2022-09-20T21:11:44.738Z,8.00
2022-09-20T21:14:12.352Z,8.00
2022-09-20T21:16:44.109Z,7.90
2022-09-20T21:19:16.349Z,7.90
2022-09-20T21:21:44.649Z,7.90
2022-09-20T21:24:13.271Z,7.90
2022-09-20T21:26:40.200Z,7.90
2022-09-20T21:29:10.497Z,7.80
2022-09-20T21:31:39.425Z,7.80
2022-09-20T21:34:07.317Z,7.80
2022-09-20T21:36:35.361Z,7.80
2022-09-20T21:39:02.111Z,7.80
2022-09-20T21:41:31.484Z,7.70
2022-09-20T21:44:00.053Z,7.70
2022-09-20T21:46:32.222Z,7.70
2022-09-20T21:49:01.524Z,7.70
2022-09-20T21:51:31.533Z,7.70
2022-09-20T21:54:01.221Z,7.70
2022-09-20T21:56:39.008Z,7.60
2022-09-20T21:59:06.242Z,7.60
2022-09-20T22:01:35.680Z,7.60
2022-09-20T22:04:10.304Z,7.60
2022-09-20T22:06:39.239Z,7.60
2022-09-20T22:09:11.675Z,7.50
2022-09-20T22:11:44.097Z,7.50
2022-09-20T22:14:12.904Z,7.50
2022-09-20T22:16:41.065Z,7.50
2022-09-20T22:19:09.837Z,7.40
2022-09-20T22:21:48.021Z,7.40
2022-09-20T22:24:16.084Z,7.40
2022-09-20T22:26:46.070Z,7.30
2022-09-20T22:29:13.236Z,7.30
2022-09-20T22:31:44.870Z,7.30
2022-09-20T22:34:14.657Z,7.30
2022-09-20T22:36:42.481Z,7.30
2022-09-20T22:39:10.878Z,7.30
2022-09-20T22:41:39.089Z,7.20
2022-09-20T22:44:06.077Z,7.20
2022-09-20T22:46:33.479Z,7.20
2022-09-20T22:49:00.496Z,7.20
2022-09-20T22:51:30.680Z,7.20
2022-09-20T22:53:57.422Z,7.20
2022-09-20T22:56:26.324Z,7.30
2022-09-20T22:58:55.292Z,7.30
2022-09-20T23:01:27.643Z,7.30
2022-09-20T23:03:58.683Z,7.30
2022-09-20T23:06:31.813Z,7.30
2022-09-20T23:09:00.603Z,7.30
2022-09-20T23:11:28.308Z,7.30
2022-09-20T23:13:56.733Z,7.20
2022-09-20T23:16:26.177Z,7.20
2022-09-20T23:18:54.231Z,7.20
2022-09-20T23:21:21.169Z,7.20
2022-09-20T23:23:55.667Z,7.10
2022-09-20T23:26:23.511Z,7.10
2022-09-20T23:28:59.232Z,7.10
2022-09-20T23:31:27.100Z,7.10
2022-09-20T23:33:56.973Z,7.10
2022-09-20T23:36:25.216Z,7.10
2022-09-20T23:38:51.784Z,7.10
2022-09-20T23:41:20.413Z,7.00
2022-09-20T23:43:47.758Z,7.00
2022-09-20T23:46:16.478Z,7.00
2022-09-20T23:48:43.672Z,7.00
2022-09-20T23:51:16.177Z,6.90
2022-09-20T23:53:44.244Z,6.90
2022-09-20T23:56:11.937Z,6.90
2022-09-20T23:58:40.872Z,6.80
